Time;durP1;ratioP1;P1;durP2;ratioP2;P2;SDS_P1;SDS_P2;PMS_P1;PMS_P2;Temp;Humidity;BMP_temperature;BMP_pressure;BME280_temperature;BME280_humidity;BME280_pressure;Samples;Min_cycle;Max_cycle;Signal;HPM_P1;HPM_P2
2022/05/24 03:20:34;;;;;;;24.47;20.20;;;15.40;99.90;;;;;;5122886;27;20564;-72
2022/05/24 03:23:02;;;;;;;16.43;10.53;;;15.00;99.90;;;;;;5112065;28;20465;-72
2022/05/24 03:25:28;;;;;;;23.97;15.33;;;15.10;99.90;;;;;;5122008;27;20227;-74
2022/05/24 03:27:53;;;;;;;19.13;11.93;;;15.10;99.90;;;;;;5117333;28;20776;-72
2022/05/24 03:30:19;;;;;;;22.03;12.20;;;15.20;99.90;;;;;;5107169;28;20414;-72
2022/05/24 03:32:45;;;;;;;20.70;10.80;;;15.30;99.90;;;;;;5105688;28;20257;-73
2022/05/24 03:35:14;;;;;;;13.80;10.73;;;15.40;99.90;;;;;;5107088;28;20285;-72
2022/05/24 03:37:41;;;;;;;20.43;11.83;;;15.60;99.90;;;;;;5107547;28;20198;-71
2022/05/24 03:40:08;;;;;;;11.83;8.50;;;15.50;99.90;;;;;;5104463;28;20477;-73
2022/05/24 03:42:34;;;;;;;12.43;9.10;;;15.70;99.90;;;;;;5100014;28;20430;-72
2022/05/24 03:45:00;;;;;;;12.33;8.50;;;15.70;99.90;;;;;;5103676;28;20422;-72
2022/05/24 03:47:26;;;;;;;15.60;9.93;;;15.60;99.90;;;;;;5099903;28;20181;-73
2022/05/24 03:49:51;;;;;;;15.83;9.90;;;15.70;99.90;;;;;;5104517;28;20185;-72
2022/05/24 03:52:17;;;;;;;14.80;9.00;;;15.70;99.90;;;;;;5105423;28;20234;-72
2022/05/24 03:54:42;;;;;;;13.70;8.83;;;15.70;99.90;;;;;;5107218;28;20184;-72
2022/05/24 03:59:52;;;;;;;11.83;8.17;;;15.80;99.90;;;;;;5105186;28;20330;-72
2022/05/24 04:02:18;;;;;;;15.03;9.97;;;15.90;99.90;;;;;;5102266;28;20422;-72
2022/05/24 04:04:43;;;;;;;20.13;9.67;;;15.90;99.90;;;;;;5104325;28;20475;-72
2022/05/24 04:07:09;;;;;;;13.10;8.33;;;15.90;99.90;;;;;;5101684;28;20181;-73
2022/05/24 04:09:35;;;;;;;14.00;8.60;;;15.90;99.90;;;;;;5105149;28;20204;-72
2022/05/24 04:12:02;;;;;;;13.67;7.73;;;16.00;99.90;;;;;;5105800;28;20184;-72
2022/05/24 04:14:29;;;;;;;16.43;9.23;;;16.00;99.90;;;;;;5101892;28;20897;-72
2022/05/24 04:16:55;;;;;;;16.10;8.60;;;16.00;99.90;;;;;;5098022;28;21011;-72
2022/05/24 04:19:21;;;;;;;12.23;7.30;;;16.00;99.90;;;;;;5104755;28;20478;-73
2022/05/24 04:21:46;;;;;;;16.27;9.70;;;16.00;99.90;;;;;;5091108;28;20188;-72
2022/05/24 04:24:12;;;;;;;13.27;7.20;;;16.00;99.90;;;;;;5103200;28;20665;-72
2022/05/24 04:26:37;;;;;;;12.83;8.30;;;16.00;99.90;;;;;;5104834;28;20180;-71
2022/05/24 04:29:03;;;;;;;14.10;8.40;;;16.10;99.90;;;;;;5100771;28;20233;-72
2022/05/24 04:31:29;;;;;;;11.33;7.97;;;16.10;99.90;;;;;;5085089;28;20270;-68
2022/05/24 04:33:54;;;;;;;19.13;10.50;;;16.10;99.90;;;;;;5088698;28;20189;-67
2022/05/24 04:36:20;;;;;;;15.27;10.50;;;16.10;99.90;;;;;;5089388;28;20193;-67
2022/05/24 04:38:45;;;;;;;17.93;10.13;;;16.10;99.90;;;;;;5086968;28;20261;-68
2022/05/24 04:43:55;;;;;;;11.53;9.00;;;16.20;99.90;;;;;;5077587;28;20250;-68
2022/05/24 04:46:20;;;;;;;15.67;10.20;;;16.10;99.90;;;;;;5086737;28;20435;-68
2022/05/24 04:48:46;;;;;;;18.10;10.10;;;16.10;99.90;;;;;;5086230;28;20589;-69
2022/05/24 04:51:11;;;;;;;17.53;10.47;;;16.10;99.90;;;;;;5088661;28;20188;-70
2022/05/24 04:53:37;;;;;;;15.43;9.03;;;16.20;99.90;;;;;;5085401;28;20193;-69
2022/05/24 04:56:03;;;;;;;14.10;8.57;;;16.20;99.90;;;;;;5086796;28;20193;-69
2022/05/24 04:58:29;;;;;;;13.20;8.43;;;16.20;99.90;;;;;;5088304;28;20466;-69
2022/05/24 05:00:54;;;;;;;23.83;12.20;;;16.30;99.90;;;;;;5084657;28;20185;-67
2022/05/24 05:03:21;;;;;;;13.90;8.93;;;16.30;99.90;;;;;;5084021;28;20677;-68
2022/05/24 05:05:49;;;;;;;27.77;11.73;;;16.30;99.90;;;;;;5087232;28;20178;-69
2022/05/24 05:08:15;;;;;;;17.27;9.40;;;16.30;99.90;;;;;;5087871;28;20463;-67
2022/05/24 05:10:41;;;;;;;14.70;8.63;;;16.20;99.90;;;;;;5081038;28;20935;-69
2022/05/24 05:13:07;;;;;;;14.67;9.27;;;16.20;99.90;;;;;;5089607;28;20978;-69
2022/05/24 05:15:34;;;;;;;22.43;10.70;;;16.20;99.90;;;;;;5082813;28;20454;-71
2022/05/24 05:18:10;;;;;;;16.23;8.17;;;16.20;99.90;;;;;;5087703;28;20822;-68
2022/05/24 05:20:41;;;;;;;14.20;8.30;;;16.30;99.90;;;;;;5082454;28;20430;-67
2022/05/24 05:23:09;;;;;;;14.20;7.97;;;16.30;99.90;;;;;;5081062;28;20439;-69
2022/05/24 05:25:35;;;;;;;16.87;8.50;;;16.30;99.90;;;;;;5087999;28;20432;-68
2022/05/24 05:28:02;;;;;;;11.87;7.53;;;16.30;99.90;;;;;;5083714;28;20505;-68
2022/05/24 05:33:13;;;;;;;12.43;7.23;;;16.40;99.90;;;;;;5085615;28;20782;-66
2022/05/24 05:35:38;;;;;;;15.60;8.10;;;16.40;99.90;;;;;;5090678;28;20507;-68
2022/05/24 05:38:04;;;;;;;19.80;9.27;;;16.50;99.90;;;;;;5089088;28;20204;-68
2022/05/24 05:40:30;;;;;;;14.07;7.20;;;16.40;99.90;;;;;;5089187;28;20216;-67
2022/05/24 05:42:55;;;;;;;17.77;7.73;;;16.40;99.90;;;;;;5080600;28;20188;-66
2022/05/24 05:45:21;;;;;;;16.40;8.10;;;16.40;99.90;;;;;;5085398;28;20735;-67
2022/05/24 05:47:48;;;;;;;19.23;8.00;;;16.40;99.90;;;;;;5101061;28;20213;-71
2022/05/24 05:50:14;;;;;;;15.37;7.53;;;16.40;99.90;;;;;;5110265;28;20188;-71
2022/05/24 05:52:39;;;;;;;18.63;8.30;;;16.40;99.90;;;;;;5092654;28;20436;-68
2022/05/24 05:55:05;;;;;;;22.50;8.27;;;16.50;99.90;;;;;;5084925;28;20611;-67
2022/05/24 05:57:31;;;;;;;16.90;7.73;;;16.40;99.90;;;;;;5087771;28;20197;-70
2022/05/24 05:59:57;;;;;;;8.63;5.60;;;16.40;99.90;;;;;;5090446;28;20458;-76
2022/05/24 06:02:22;;;;;;;17.87;7.50;;;16.30;99.90;;;;;;5084113;28;20213;-72
2022/05/24 06:04:48;;;;;;;19.23;7.83;;;16.30;99.90;;;;;;5087151;28;20271;-73
2022/05/24 06:07:13;;;;;;;13.53;5.87;;;16.20;99.90;;;;;;5087245;28;20180;-72
2022/05/24 06:09:39;;;;;;;22.40;8.70;;;16.20;99.90;;;;;;5082200;28;20229;-71
2022/05/24 06:12:05;;;;;;;13.43;6.77;;;16.10;99.90;;;;;;5082801;28;20650;-72
2022/05/24 06:14:30;;;;;;;20.93;9.23;;;16.00;99.90;;;;;;5078715;28;20193;-72
2022/05/24 06:16:56;;;;;;;18.93;7.60;;;15.60;99.90;;;;;;5086403;28;20514;-73
2022/05/24 06:19:21;;;;;;;22.13;8.83;;;15.20;99.90;;;;;;5088527;28;20253;-71
2022/05/24 06:21:47;;;;;;;25.60;9.37;;;15.10;99.90;;;;;;5082985;28;20178;-71
2022/05/24 06:24:14;;;;;;;13.50;7.43;;;15.00;99.90;;;;;;5083236;28;20192;-72
2022/05/24 06:26:40;;;;;;;15.17;7.27;;;15.00;99.90;;;;;;5082485;28;20186;-73
2022/05/24 06:29:05;;;;;;;212.10;200.27;;;15.00;99.90;;;;;;5088187;28;21707;-71
2022/05/24 06:31:32;;;;;;;21.67;9.57;;;15.00;99.90;;;;;;5081194;28;20197;-70
2022/05/24 06:33:57;;;;;;;20.20;8.77;;;14.90;99.90;;;;;;5085446;28;20189;-72
2022/05/24 06:36:23;;;;;;;14.00;6.40;;;15.00;99.90;;;;;;5080203;28;20454;-72
2022/05/24 06:38:49;;;;;;;17.73;6.97;;;15.00;99.90;;;;;;5084327;28;20204;-72
2022/05/24 06:41:14;;;;;;;17.97;6.70;;;15.10;99.90;;;;;;5080043;28;20211;-73
2022/05/24 06:43:40;;;;;;;11.50;5.30;;;15.00;99.90;;;;;;5084623;28;20185;-72
2022/05/24 06:46:09;;;;;;;23.50;9.20;;;15.10;99.90;;;;;;5087758;28;20706;-72
